sensor_id;sensor_type;location;lat;lon;timestamp;P1;durP1;ratioP1;P2;durP2;ratioP2
33696;SDS011;20031;43.416;23.232;2022-12-29T00:01:07;29.73;;;13.00;;
33696;SDS011;20031;43.416;23.232;2022-12-29T00:03:32;29.73;;;13.20;;
33696;SDS011;20031;43.416;23.232;2022-12-29T00:05:58;30.38;;;13.05;;
33696;SDS011;20031;43.416;23.232;2022-12-29T00:08:23;29.88;;;12.77;;
33696;SDS011;20031;43.416;23.232;2022-12-29T00:11:04;27.50;;;12.32;;
33696;SDS011;20031;43.416;23.232;2022-12-29T00:13:34;34.38;;;11.93;;
33696;SDS011;20031;43.416;23.232;2022-12-29T00:16:19;32.10;;;12.00;;
33696;SDS011;20031;43.416;23.232;2022-12-29T00:18:44;22.23;;;11.50;;
33696;SDS011;20031;43.416;23.232;2022-12-29T00:21:13;25.17;;;11.98;;
33696;SDS011;20031;43.416;23.232;2022-12-29T00:23:58;26.88;;;12.45;;
33696;SDS011;20031;43.416;23.232;2022-12-29T00:26:42;24.90;;;12.15;;
33696;SDS011;20031;43.416;23.232;2022-12-29T00:29:27;26.67;;;11.50;;
33696;SDS011;20031;43.416;23.232;2022-12-29T00:32:11;31.10;;;14.15;;
33696;SDS011;20031;43.416;23.232;2022-12-29T00:34:54;27.50;;;13.10;;
33696;SDS011;20031;43.416;23.232;2022-12-29T00:37:45;30.00;;;14.05;;
33696;SDS011;20031;43.416;23.232;2022-12-29T00:40:31;27.92;;;14.40;;
33696;SDS011;20031;43.416;23.232;2022-12-29T00:43:15;28.33;;;14.13;;
33696;SDS011;20031;43.416;23.232;2022-12-29T00:45:59;25.73;;;14.50;;
33696;SDS011;20031;43.416;23.232;2022-12-29T00:48:24;26.50;;;14.15;;
33696;SDS011;20031;43.416;23.232;2022-12-29T00:51:08;23.02;;;12.45;;
33696;SDS011;20031;43.416;23.232;2022-12-29T00:53:34;20.80;;;11.63;;
33696;SDS011;20031;43.416;23.232;2022-12-29T00:55:59;20.73;;;11.55;;
33696;SDS011;20031;43.416;23.232;2022-12-29T00:58:28;22.02;;;11.35;;
33696;SDS011;20031;43.416;23.232;2022-12-29T01:01:05;21.25;;;10.57;;
33696;SDS011;20031;43.416;23.232;2022-12-29T01:03:32;16.73;;;9.70;;
33696;SDS011;20031;43.416;23.232;2022-12-29T01:06:03;14.50;;;8.90;;
33696;SDS011;20031;43.416;23.232;2022-12-29T01:08:32;20.55;;;8.88;;
33696;SDS011;20031;43.416;23.232;2022-12-29T01:10:58;14.38;;;8.07;;
33696;SDS011;20031;43.416;23.232;2022-12-29T01:13:31;13.55;;;8.55;;
33696;SDS011;20031;43.416;23.232;2022-12-29T01:15:57;18.20;;;9.07;;
33696;SDS011;20031;43.416;23.232;2022-12-29T01:18:23;17.45;;;8.63;;
33696;SDS011;20031;43.416;23.232;2022-12-29T01:20:49;14.13;;;8.15;;
33696;SDS011;20031;43.416;23.232;2022-12-29T01:23:15;15.05;;;8.93;;
33696;SDS011;20031;43.416;23.232;2022-12-29T01:25:40;19.52;;;9.10;;
33696;SDS011;20031;43.416;23.232;2022-12-29T01:28:06;18.15;;;9.75;;
33696;SDS011;20031;43.416;23.232;2022-12-29T01:30:33;16.45;;;9.57;;
33696;SDS011;20031;43.416;23.232;2022-12-29T01:33:00;19.23;;;9.90;;
33696;SDS011;20031;43.416;23.232;2022-12-29T01:35:26;15.40;;;9.68;;
33696;SDS011;20031;43.416;23.232;2022-12-29T01:37:51;16.80;;;10.05;;
33696;SDS011;20031;43.416;23.232;2022-12-29T01:40:17;19.88;;;9.95;;
33696;SDS011;20031;43.416;23.232;2022-12-29T01:42:42;17.17;;;9.80;;
33696;SDS011;20031;43.416;23.232;2022-12-29T01:45:11;18.17;;;9.10;;
33696;SDS011;20031;43.416;23.232;2022-12-29T01:47:52;17.38;;;8.80;;
33696;SDS011;20031;43.416;23.232;2022-12-29T01:52:58;15.52;;;8.90;;
33696;SDS011;20031;43.416;23.232;2022-12-29T01:55:27;18.33;;;8.57;;
33696;SDS011;20031;43.416;23.232;2022-12-29T01:57:56;15.20;;;9.20;;
33696;SDS011;20031;43.416;23.232;2022-12-29T02:00:25;18.80;;;10.23;;
33696;SDS011;20031;43.416;23.232;2022-12-29T02:02:53;18.08;;;8.75;;
33696;SDS011;20031;43.416;23.232;2022-12-29T02:08:18;20.95;;;10.40;;
33696;SDS011;20031;43.416;23.232;2022-12-29T02:10:46;17.10;;;9.30;;
33696;SDS011;20031;43.416;23.232;2022-12-29T02:13:14;16.05;;;8.93;;
33696;SDS011;20031;43.416;23.232;2022-12-29T02:18:16;14.48;;;8.93;;
33696;SDS011;20031;43.416;23.232;2022-12-29T02:26:42;17.30;;;8.43;;
33696;SDS011;20031;43.416;23.232;2022-12-29T02:32:05;17.52;;;8.88;;
33696;SDS011;20031;43.416;23.232;2022-12-29T02:34:52;16.73;;;8.23;;
33696;SDS011;20031;43.416;23.232;2022-12-29T02:37:36;14.35;;;8.10;;
33696;SDS011;20031;43.416;23.232;2022-12-29T02:43:01;14.18;;;8.50;;
33696;SDS011;20031;43.416;23.232;2022-12-29T02:45:53;15.70;;;8.90;;
33696;SDS011;20031;43.416;23.232;2022-12-29T02:48:31;14.48;;;7.95;;
33696;SDS011;20031;43.416;23.232;2022-12-29T02:51:04;15.38;;;8.60;;
33696;SDS011;20031;43.416;23.232;2022-12-29T02:53:35;15.95;;;8.40;;
33696;SDS011;20031;43.416;23.232;2022-12-29T02:56:20;12.25;;;7.68;;
33696;SDS011;20031;43.416;23.232;2022-12-29T02:58:46;15.10;;;7.68;;
33696;SDS011;20031;43.416;23.232;2022-12-29T03:04:39;11.38;;;7.60;;
33696;SDS011;20031;43.416;23.232;2022-12-29T03:15:31;10.95;;;6.68;;
33696;SDS011;20031;43.416;23.232;2022-12-29T03:18:21;15.70;;;7.00;;
33696;SDS011;20031;43.416;23.232;2022-12-29T03:21:02;14.63;;;7.05;;
33696;SDS011;20031;43.416;23.232;2022-12-29T03:23:32;12.80;;;7.10;;
33696;SDS011;20031;43.416;23.232;2022-12-29T03:26:02;12.18;;;7.10;;
33696;SDS011;20031;43.416;23.232;2022-12-29T03:28:36;14.85;;;7.40;;
33696;SDS011;20031;43.416;23.232;2022-12-29T03:31:05;12.43;;;6.85;;
33696;SDS011;20031;43.416;23.232;2022-12-29T03:33:33;17.05;;;8.00;;
33696;SDS011;20031;43.416;23.232;2022-12-29T03:36:03;13.20;;;8.02;;
33696;SDS011;20031;43.416;23.232;2022-12-29T03:41:06;16.75;;;8.80;;
33696;SDS011;20031;43.416;23.232;2022-12-29T03:43:35;14.60;;;8.30;;
33696;SDS011;20031;43.416;23.232;2022-12-29T03:46:00;17.45;;;9.95;;
33696;SDS011;20031;43.416;23.232;2022-12-29T03:48:26;18.80;;;10.20;;
33696;SDS011;20031;43.416;23.232;2022-12-29T03:50:51;19.00;;;9.65;;
33696;SDS011;20031;43.416;23.232;2022-12-29T03:53:17;14.38;;;8.85;;
33696;SDS011;20031;43.416;23.232;2022-12-29T03:55:42;17.17;;;9.13;;
33696;SDS011;20031;43.416;23.232;2022-12-29T03:58:07;17.65;;;8.65;;
33696;SDS011;20031;43.416;23.232;2022-12-29T04:00:33;17.58;;;8.27;;
33696;SDS011;20031;43.416;23.232;2022-12-29T04:02:58;19.13;;;9.57;;
33696;SDS011;20031;43.416;23.232;2022-12-29T04:05:24;17.30;;;9.77;;
33696;SDS011;20031;43.416;23.232;2022-12-29T04:07:49;18.90;;;10.70;;
33696;SDS011;20031;43.416;23.232;2022-12-29T04:10:15;20.05;;;10.02;;
33696;SDS011;20031;43.416;23.232;2022-12-29T04:12:40;20.10;;;10.07;;
33696;SDS011;20031;43.416;23.232;2022-12-29T04:15:07;16.70;;;9.35;;
33696;SDS011;20031;43.416;23.232;2022-12-29T04:17:33;19.98;;;9.95;;
33696;SDS011;20031;43.416;23.232;2022-12-29T04:19:58;23.40;;;9.60;;
33696;SDS011;20031;43.416;23.232;2022-12-29T04:22:44;20.27;;;9.90;;
33696;SDS011;20031;43.416;23.232;2022-12-29T04:25:09;19.13;;;9.35;;
33696;SDS011;20031;43.416;23.232;2022-12-29T04:27:34;18.00;;;9.38;;
33696;SDS011;20031;43.416;23.232;2022-12-29T04:30:00;17.15;;;9.52;;
33696;SDS011;20031;43.416;23.232;2022-12-29T04:32:25;13.85;;;8.18;;
33696;SDS011;20031;43.416;23.232;2022-12-29T04:34:51;15.90;;;8.48;;
33696;SDS011;20031;43.416;23.232;2022-12-29T04:37:16;17.40;;;8.57;;
33696;SDS011;20031;43.416;23.232;2022-12-29T04:39:42;14.82;;;7.82;;
33696;SDS011;20031;43.416;23.232;2022-12-29T04:42:07;13.88;;;8.20;;
33696;SDS011;20031;43.416;23.232;2022-12-29T04:44:32;17.65;;;8.70;;
33696;SDS011;20031;43.416;23.232;2022-12-29T04:46:58;15.23;;;8.40;;
33696;SDS011;20031;43.416;23.232;2022-12-29T04:49:23;15.30;;;8.85;;
33696;SDS011;20031;43.416;23.232;2022-12-29T04:51:49;14.38;;;8.35;;
33696;SDS011;20031;43.416;23.232;2022-12-29T04:54:14;15.73;;;9.15;;
33696;SDS011;20031;43.416;23.232;2022-12-29T04:56:39;16.17;;;8.43;;
33696;SDS011;20031;43.416;23.232;2022-12-29T04:59:05;19.45;;;8.38;;
33696;SDS011;20031;43.416;23.232;2022-12-29T05:01:30;15.68;;;8.50;;
33696;SDS011;20031;43.416;23.232;2022-12-29T05:03:56;21.50;;;8.80;;
33696;SDS011;20031;43.416;23.232;2022-12-29T05:06:21;15.15;;;7.70;;
33696;SDS011;20031;43.416;23.232;2022-12-29T05:08:47;17.00;;;7.90;;
33696;SDS011;20031;43.416;23.232;2022-12-29T05:11:12;18.33;;;7.72;;
33696;SDS011;20031;43.416;23.232;2022-12-29T05:13:38;22.55;;;7.80;;
33696;SDS011;20031;43.416;23.232;2022-12-29T05:16:03;17.27;;;7.82;;
33696;SDS011;20031;43.416;23.232;2022-12-29T05:18:29;16.15;;;6.85;;
33696;SDS011;20031;43.416;23.232;2022-12-29T05:20:54;15.07;;;7.40;;
33696;SDS011;20031;43.416;23.232;2022-12-29T05:23:20;14.20;;;7.30;;
33696;SDS011;20031;43.416;23.232;2022-12-29T05:25:45;21.33;;;7.07;;
33696;SDS011;20031;43.416;23.232;2022-12-29T05:28:12;22.58;;;10.38;;
33696;SDS011;20031;43.416;23.232;2022-12-29T05:30:37;26.30;;;14.80;;
33696;SDS011;20031;43.416;23.232;2022-12-29T05:33:03;25.25;;;11.00;;
33696;SDS011;20031;43.416;23.232;2022-12-29T05:35:31;16.77;;;10.45;;
33696;SDS011;20031;43.416;23.232;2022-12-29T05:37:57;29.35;;;11.05;;
33696;SDS011;20031;43.416;23.232;2022-12-29T05:40:22;24.58;;;11.57;;
33696;SDS011;20031;43.416;23.232;2022-12-29T05:42:48;45.15;;;22.52;;
33696;SDS011;20031;43.416;23.232;2022-12-29T05:45:13;29.50;;;12.70;;
33696;SDS011;20031;43.416;23.232;2022-12-29T05:47:39;38.67;;;14.20;;
33696;SDS011;20031;43.416;23.232;2022-12-29T05:50:04;36.92;;;15.20;;
33696;SDS011;20031;43.416;23.232;2022-12-29T05:52:45;39.25;;;16.92;;
33696;SDS011;20031;43.416;23.232;2022-12-29T05:55:10;65.03;;;22.90;;
33696;SDS011;20031;43.416;23.232;2022-12-29T05:57:36;51.20;;;23.02;;
33696;SDS011;20031;43.416;23.232;2022-12-29T06:00:03;57.72;;;23.88;;
33696;SDS011;20031;43.416;23.232;2022-12-29T06:02:29;65.80;;;25.60;;
33696;SDS011;20031;43.416;23.232;2022-12-29T06:04:55;69.18;;;25.85;;
33696;SDS011;20031;43.416;23.232;2022-12-29T06:07:20;59.28;;;24.05;;
33696;SDS011;20031;43.416;23.232;2022-12-29T06:09:46;57.42;;;23.80;;
33696;SDS011;20031;43.416;23.232;2022-12-29T06:12:11;51.78;;;24.33;;
33696;SDS011;20031;43.416;23.232;2022-12-29T06:14:37;48.78;;;23.40;;
33696;SDS011;20031;43.416;23.232;2022-12-29T06:17:02;56.97;;;21.90;;
33696;SDS011;20031;43.416;23.232;2022-12-29T06:19:27;46.10;;;22.85;;
33696;SDS011;20031;43.416;23.232;2022-12-29T06:21:53;60.30;;;22.15;;
33696;SDS011;20031;43.416;23.232;2022-12-29T06:24:19;62.05;;;21.63;;
33696;SDS011;20031;43.416;23.232;2022-12-29T06:26:44;46.90;;;22.73;;
33696;SDS011;20031;43.416;23.232;2022-12-29T06:29:10;61.40;;;27.02;;
33696;SDS011;20031;43.416;23.232;2022-12-29T06:31:36;36.88;;;18.88;;
33696;SDS011;20031;43.416;23.232;2022-12-29T06:34:01;46.85;;;20.35;;
33696;SDS011;20031;43.416;23.232;2022-12-29T06:36:27;55.35;;;22.30;;
33696;SDS011;20031;43.416;23.232;2022-12-29T06:38:53;47.58;;;21.90;;
33696;SDS011;20031;43.416;23.232;2022-12-29T06:41:19;52.05;;;24.00;;
33696;SDS011;20031;43.416;23.232;2022-12-29T06:43:45;59.33;;;29.20;;
33696;SDS011;20031;43.416;23.232;2022-12-29T06:46:10;102.10;;;45.97;;
33696;SDS011;20031;43.416;23.232;2022-12-29T06:48:36;118.22;;;47.22;;
33696;SDS011;20031;43.416;23.232;2022-12-29T06:51:01;68.45;;;28.80;;
33696;SDS011;20031;43.416;23.232;2022-12-29T06:53:27;60.85;;;23.40;;
33696;SDS011;20031;43.416;23.232;2022-12-29T06:55:52;98.43;;;43.70;;
33696;SDS011;20031;43.416;23.232;2022-12-29T06:58:18;106.53;;;47.88;;
33696;SDS011;20031;43.416;23.232;2022-12-29T07:00:43;92.28;;;36.75;;
33696;SDS011;20031;43.416;23.232;2022-12-29T07:03:09;47.90;;;23.02;;
33696;SDS011;20031;43.416;23.232;2022-12-29T07:05:34;64.40;;;27.08;;
33696;SDS011;20031;43.416;23.232;2022-12-29T07:08:00;71.22;;;27.40;;
33696;SDS011;20031;43.416;23.232;2022-12-29T07:10:25;60.03;;;26.58;;
33696;SDS011;20031;43.416;23.232;2022-12-29T07:12:51;60.00;;;28.33;;
33696;SDS011;20031;43.416;23.232;2022-12-29T07:15:16;70.75;;;32.88;;
33696;SDS011;20031;43.416;23.232;2022-12-29T07:17:42;77.78;;;39.47;;
33696;SDS011;20031;43.416;23.232;2022-12-29T07:20:08;82.50;;;39.45;;
33696;SDS011;20031;43.416;23.232;2022-12-29T07:22:34;66.53;;;31.13;;
33696;SDS011;20031;43.416;23.232;2022-12-29T07:25:00;74.38;;;31.33;;
33696;SDS011;20031;43.416;23.232;2022-12-29T07:27:26;64.82;;;32.25;;
33696;SDS011;20031;43.416;23.232;2022-12-29T07:29:51;58.33;;;30.10;;
33696;SDS011;20031;43.416;23.232;2022-12-29T07:32:16;66.13;;;28.05;;
33696;SDS011;20031;43.416;23.232;2022-12-29T07:34:42;54.50;;;26.13;;
33696;SDS011;20031;43.416;23.232;2022-12-29T07:37:10;50.28;;;22.45;;
33696;SDS011;20031;43.416;23.232;2022-12-29T07:39:35;52.88;;;20.23;;
33696;SDS011;20031;43.416;23.232;2022-12-29T07:42:01;55.10;;;20.42;;
33696;SDS011;20031;43.416;23.232;2022-12-29T07:44:26;36.00;;;20.10;;
33696;SDS011;20031;43.416;23.232;2022-12-29T07:46:52;55.92;;;19.77;;
33696;SDS011;20031;43.416;23.232;2022-12-29T07:49:17;40.15;;;19.70;;
33696;SDS011;20031;43.416;23.232;2022-12-29T07:51:43;47.28;;;20.40;;
33696;SDS011;20031;43.416;23.232;2022-12-29T07:54:08;44.67;;;18.15;;
33696;SDS011;20031;43.416;23.232;2022-12-29T07:56:34;38.97;;;17.42;;
33696;SDS011;20031;43.416;23.232;2022-12-29T07:58:59;36.55;;;18.70;;
33696;SDS011;20031;43.416;23.232;2022-12-29T08:01:25;40.08;;;18.95;;
33696;SDS011;20031;43.416;23.232;2022-12-29T08:03:50;39.55;;;17.60;;
33696;SDS011;20031;43.416;23.232;2022-12-29T08:06:15;39.30;;;20.05;;
33696;SDS011;20031;43.416;23.232;2022-12-29T08:08:41;39.35;;;19.75;;
33696;SDS011;20031;43.416;23.232;2022-12-29T08:11:06;33.08;;;18.23;;
33696;SDS011;20031;43.416;23.232;2022-12-29T08:13:32;34.15;;;16.80;;
33696;SDS011;20031;43.416;23.232;2022-12-29T08:15:58;35.88;;;17.35;;
33696;SDS011;20031;43.416;23.232;2022-12-29T08:18:23;30.63;;;17.23;;
33696;SDS011;20031;43.416;23.232;2022-12-29T08:20:49;52.63;;;23.88;;
33696;SDS011;20031;43.416;23.232;2022-12-29T08:23:15;28.17;;;13.88;;
33696;SDS011;20031;43.416;23.232;2022-12-29T08:25:40;26.83;;;14.20;;
33696;SDS011;20031;43.416;23.232;2022-12-29T08:28:06;29.42;;;13.95;;
33696;SDS011;20031;43.416;23.232;2022-12-29T08:30:31;25.77;;;13.70;;
33696;SDS011;20031;43.416;23.232;2022-12-29T08:32:56;28.08;;;13.38;;
33696;SDS011;20031;43.416;23.232;2022-12-29T08:35:22;26.02;;;12.93;;
33696;SDS011;20031;43.416;23.232;2022-12-29T08:37:47;23.10;;;13.45;;
33696;SDS011;20031;43.416;23.232;2022-12-29T08:40:13;29.13;;;14.00;;
33696;SDS011;20031;43.416;23.232;2022-12-29T08:42:38;31.58;;;14.65;;
33696;SDS011;20031;43.416;23.232;2022-12-29T08:45:04;30.50;;;15.15;;
33696;SDS011;20031;43.416;23.232;2022-12-29T08:47:30;33.08;;;16.70;;
33696;SDS011;20031;43.416;23.232;2022-12-29T08:49:55;35.78;;;17.65;;
33696;SDS011;20031;43.416;23.232;2022-12-29T08:52:21;35.83;;;19.13;;
33696;SDS011;20031;43.416;23.232;2022-12-29T08:54:46;30.98;;;16.17;;
33696;SDS011;20031;43.416;23.232;2022-12-29T08:57:12;25.95;;;14.50;;
33696;SDS011;20031;43.416;23.232;2022-12-29T08:59:37;27.00;;;15.55;;
33696;SDS011;20031;43.416;23.232;2022-12-29T09:02:03;29.70;;;17.55;;
33696;SDS011;20031;43.416;23.232;2022-12-29T09:04:28;35.53;;;18.23;;
33696;SDS011;20031;43.416;23.232;2022-12-29T09:06:54;42.03;;;21.10;;
33696;SDS011;20031;43.416;23.232;2022-12-29T09:09:20;42.45;;;22.05;;
33696;SDS011;20031;43.416;23.232;2022-12-29T09:11:45;64.32;;;26.40;;
33696;SDS011;20031;43.416;23.232;2022-12-29T09:14:11;49.13;;;26.20;;
33696;SDS011;20031;43.416;23.232;2022-12-29T09:16:37;45.72;;;23.25;;
33696;SDS011;20031;43.416;23.232;2022-12-29T09:19:03;41.22;;;23.15;;
33696;SDS011;20031;43.416;23.232;2022-12-29T09:21:28;63.60;;;28.80;;
33696;SDS011;20031;43.416;23.232;2022-12-29T09:23:54;57.55;;;32.05;;
33696;SDS011;20031;43.416;23.232;2022-12-29T09:26:20;50.45;;;28.23;;
33696;SDS011;20031;43.416;23.232;2022-12-29T09:28:45;49.80;;;25.95;;
33696;SDS011;20031;43.416;23.232;2022-12-29T09:31:12;47.50;;;23.27;;
33696;SDS011;20031;43.416;23.232;2022-12-29T09:33:37;36.25;;;20.55;;
33696;SDS011;20031;43.416;23.232;2022-12-29T09:36:03;45.15;;;22.42;;
33696;SDS011;20031;43.416;23.232;2022-12-29T09:38:28;36.88;;;19.98;;
33696;SDS011;20031;43.416;23.232;2022-12-29T09:40:55;36.25;;;20.20;;
33696;SDS011;20031;43.416;23.232;2022-12-29T09:46:02;39.28;;;20.60;;
33696;SDS011;20031;43.416;23.232;2022-12-29T09:48:32;32.92;;;18.00;;
33696;SDS011;20031;43.416;23.232;2022-12-29T09:51:03;29.77;;;17.35;;
33696;SDS011;20031;43.416;23.232;2022-12-29T09:53:39;33.92;;;17.58;;
33696;SDS011;20031;43.416;23.232;2022-12-29T09:56:19;34.80;;;18.85;;
33696;SDS011;20031;43.416;23.232;2022-12-29T10:01:51;36.78;;;18.88;;
33696;SDS011;20031;43.416;23.232;2022-12-29T10:04:25;28.05;;;16.55;;
33696;SDS011;20031;43.416;23.232;2022-12-29T10:12:47;28.52;;;16.75;;
33696;SDS011;20031;43.416;23.232;2022-12-29T10:15:26;31.02;;;16.52;;
33696;SDS011;20031;43.416;23.232;2022-12-29T10:21:15;28.23;;;17.27;;
33696;SDS011;20031;43.416;23.232;2022-12-29T10:23:55;30.92;;;17.08;;
33696;SDS011;20031;43.416;23.232;2022-12-29T10:26:22;28.67;;;16.67;;
33696;SDS011;20031;43.416;23.232;2022-12-29T10:28:56;31.20;;;16.17;;
33696;SDS011;20031;43.416;23.232;2022-12-29T10:31:35;28.00;;;16.42;;
33696;SDS011;20031;43.416;23.232;2022-12-29T10:36:58;27.65;;;15.50;;
33696;SDS011;20031;43.416;23.232;2022-12-29T10:42:17;27.38;;;15.77;;
33696;SDS011;20031;43.416;23.232;2022-12-29T10:44:50;29.85;;;15.65;;
33696;SDS011;20031;43.416;23.232;2022-12-29T10:47:19;25.98;;;14.95;;
33696;SDS011;20031;43.416;23.232;2022-12-29T10:49:50;25.45;;;14.77;;
33696;SDS011;20031;43.416;23.232;2022-12-29T10:52:17;28.70;;;14.65;;
33696;SDS011;20031;43.416;23.232;2022-12-29T10:54:46;28.98;;;14.32;;
33696;SDS011;20031;43.416;23.232;2022-12-29T10:59:49;20.85;;;12.88;;
33696;SDS011;20031;43.416;23.232;2022-12-29T11:04:57;26.35;;;13.18;;
33696;SDS011;20031;43.416;23.232;2022-12-29T11:07:29;26.95;;;12.68;;
33696;SDS011;20031;43.416;23.232;2022-12-29T11:09:55;21.15;;;12.25;;
33696;SDS011;20031;43.416;23.232;2022-12-29T11:12:41;22.75;;;11.18;;
33696;SDS011;20031;43.416;23.232;2022-12-29T11:15:20;24.92;;;12.05;;
33696;SDS011;20031;43.416;23.232;2022-12-29T11:17:47;22.05;;;12.50;;
33696;SDS011;20031;43.416;23.232;2022-12-29T11:20:34;28.02;;;13.20;;
33696;SDS011;20031;43.416;23.232;2022-12-29T11:23:03;37.65;;;13.20;;
33696;SDS011;20031;43.416;23.232;2022-12-29T11:26:07;28.40;;;13.38;;
33696;SDS011;20031;43.416;23.232;2022-12-29T11:28:36;26.08;;;12.77;;
33696;SDS011;20031;43.416;23.232;2022-12-29T11:31:07;24.00;;;11.45;;
33696;SDS011;20031;43.416;23.232;2022-12-29T11:33:34;25.67;;;11.73;;
33696;SDS011;20031;43.416;23.232;2022-12-29T11:36:02;22.98;;;11.98;;
33696;SDS011;20031;43.416;23.232;2022-12-29T11:38:35;20.50;;;11.48;;
33696;SDS011;20031;43.416;23.232;2022-12-29T11:41:04;20.75;;;10.73;;
33696;SDS011;20031;43.416;23.232;2022-12-29T11:43:32;18.92;;;11.10;;
33696;SDS011;20031;43.416;23.232;2022-12-29T11:46:02;18.15;;;10.93;;
33696;SDS011;20031;43.416;23.232;2022-12-29T11:48:29;20.15;;;10.88;;
33696;SDS011;20031;43.416;23.232;2022-12-29T11:51:02;34.33;;;13.18;;
33696;SDS011;20031;43.416;23.232;2022-12-29T11:53:38;26.95;;;13.48;;
33696;SDS011;20031;43.416;23.232;2022-12-29T11:56:10;34.03;;;13.38;;
33696;SDS011;20031;43.416;23.232;2022-12-29T11:58:40;32.47;;;12.65;;
33696;SDS011;20031;43.416;23.232;2022-12-29T12:03:31;20.02;;;10.50;;
33696;SDS011;20031;43.416;23.232;2022-12-29T12:06:00;24.40;;;11.60;;
33696;SDS011;20031;43.416;23.232;2022-12-29T12:08:31;26.60;;;12.20;;
33696;SDS011;20031;43.416;23.232;2022-12-29T12:11:04;16.90;;;8.80;;
33696;SDS011;20031;43.416;23.232;2022-12-29T12:13:40;16.40;;;9.50;;
33696;SDS011;20031;43.416;23.232;2022-12-29T12:19:01;26.42;;;12.13;;
33696;SDS011;20031;43.416;23.232;2022-12-29T12:21:37;23.92;;;11.85;;
33696;SDS011;20031;43.416;23.232;2022-12-29T12:24:23;25.58;;;12.70;;
33696;SDS011;20031;43.416;23.232;2022-12-29T12:29:52;26.65;;;12.45;;
33696;SDS011;20031;43.416;23.232;2022-12-29T12:35:03;20.25;;;11.25;;
33696;SDS011;20031;43.416;23.232;2022-12-29T12:43:06;21.20;;;11.55;;
33696;SDS011;20031;43.416;23.232;2022-12-29T12:53:43;23.98;;;12.55;;
33696;SDS011;20031;43.416;23.232;2022-12-29T12:56:21;22.02;;;12.48;;
33696;SDS011;20031;43.416;23.232;2022-12-29T13:19:00;21.92;;;12.25;;
33696;SDS011;20031;43.416;23.232;2022-12-29T13:21:31;24.33;;;12.05;;
33696;SDS011;20031;43.416;23.232;2022-12-29T13:24:33;23.83;;;13.10;;
33696;SDS011;20031;43.416;23.232;2022-12-29T13:27:12;30.33;;;13.48;;
33696;SDS011;20031;43.416;23.232;2022-12-29T13:30:05;26.48;;;12.80;;
33696;SDS011;20031;43.416;23.232;2022-12-29T13:32:48;20.10;;;11.90;;
33696;SDS011;20031;43.416;23.232;2022-12-29T13:35:18;32.28;;;16.52;;
33696;SDS011;20031;43.416;23.232;2022-12-29T13:37:56;55.10;;;26.92;;
33696;SDS011;20031;43.416;23.232;2022-12-29T13:40:26;25.42;;;12.90;;
33696;SDS011;20031;43.416;23.232;2022-12-29T13:42:59;30.20;;;14.90;;
33696;SDS011;20031;43.416;23.232;2022-12-29T13:45:26;30.38;;;12.75;;
33696;SDS011;20031;43.416;23.232;2022-12-29T13:50:39;68.53;;;13.02;;
33696;SDS011;20031;43.416;23.232;2022-12-29T13:55:51;16.33;;;8.77;;
33696;SDS011;20031;43.416;23.232;2022-12-29T13:58:43;15.82;;;9.50;;
33696;SDS011;20031;43.416;23.232;2022-12-29T14:01:23;31.95;;;9.75;;
33696;SDS011;20031;43.416;23.232;2022-12-29T14:03:54;24.27;;;9.15;;
33696;SDS011;20031;43.416;23.232;2022-12-29T14:06:28;18.67;;;9.23;;
33696;SDS011;20031;43.416;23.232;2022-12-29T14:11:22;22.90;;;9.15;;
33696;SDS011;20031;43.416;23.232;2022-12-29T14:13:54;16.88;;;8.57;;
33696;SDS011;20031;43.416;23.232;2022-12-29T14:16:32;21.65;;;8.63;;
33696;SDS011;20031;43.416;23.232;2022-12-29T14:21:57;19.70;;;8.25;;
33696;SDS011;20031;43.416;23.232;2022-12-29T14:26:53;23.25;;;9.27;;
33696;SDS011;20031;43.416;23.232;2022-12-29T14:31:50;31.05;;;14.90;;
33696;SDS011;20031;43.416;23.232;2022-12-29T14:39:40;22.58;;;13.45;;
33696;SDS011;20031;43.416;23.232;2022-12-29T14:44:33;30.33;;;14.85;;
33696;SDS011;20031;43.416;23.232;2022-12-29T14:47:11;34.83;;;16.48;;
33696;SDS011;20031;43.416;23.232;2022-12-29T14:49:52;31.85;;;14.15;;
33696;SDS011;20031;43.416;23.232;2022-12-29T14:52:20;43.50;;;14.07;;
33696;SDS011;20031;43.416;23.232;2022-12-29T14:57:41;50.85;;;18.42;;
33696;SDS011;20031;43.416;23.232;2022-12-29T15:02:45;70.10;;;18.05;;
33696;SDS011;20031;43.416;23.232;2022-12-29T15:05:24;72.75;;;17.55;;
33696;SDS011;20031;43.416;23.232;2022-12-29T15:07:54;60.65;;;13.73;;
33696;SDS011;20031;43.416;23.232;2022-12-29T15:10:21;40.92;;;13.82;;
33696;SDS011;20031;43.416;23.232;2022-12-29T15:12:50;49.47;;;14.70;;
33696;SDS011;20031;43.416;23.232;2022-12-29T15:15:20;65.25;;;15.75;;
33696;SDS011;20031;43.416;23.232;2022-12-29T15:17:46;58.30;;;17.45;;
33696;SDS011;20031;43.416;23.232;2022-12-29T15:20:30;51.65;;;18.48;;
33696;SDS011;20031;43.416;23.232;2022-12-29T15:23:30;60.30;;;18.50;;
33696;SDS011;20031;43.416;23.232;2022-12-29T15:25:58;90.03;;;25.63;;
33696;SDS011;20031;43.416;23.232;2022-12-29T15:28:37;47.53;;;18.80;;
33696;SDS011;20031;43.416;23.232;2022-12-29T15:31:06;83.53;;;24.20;;
33696;SDS011;20031;43.416;23.232;2022-12-29T15:33:41;73.95;;;21.85;;
33696;SDS011;20031;43.416;23.232;2022-12-29T15:36:12;113.80;;;27.35;;
33696;SDS011;20031;43.416;23.232;2022-12-29T15:38:44;108.88;;;31.20;;
33696;SDS011;20031;43.416;23.232;2022-12-29T15:46:30;97.63;;;32.40;;
33696;SDS011;20031;43.416;23.232;2022-12-29T15:48:56;95.40;;;30.63;;
33696;SDS011;20031;43.416;23.232;2022-12-29T15:51:40;106.60;;;37.78;;
33696;SDS011;20031;43.416;23.232;2022-12-29T15:54:06;117.20;;;39.38;;
33696;SDS011;20031;43.416;23.232;2022-12-29T15:56:40;127.47;;;48.50;;
33696;SDS011;20031;43.416;23.232;2022-12-29T15:59:17;136.13;;;51.28;;
33696;SDS011;20031;43.416;23.232;2022-12-29T16:01:48;99.30;;;40.45;;
33696;SDS011;20031;43.416;23.232;2022-12-29T16:04:14;93.25;;;37.55;;
33696;SDS011;20031;43.416;23.232;2022-12-29T16:09:30;130.30;;;59.05;;
33696;SDS011;20031;43.416;23.232;2022-12-29T16:12:14;110.03;;;53.60;;
33696;SDS011;20031;43.416;23.232;2022-12-29T16:14:59;120.25;;;57.45;;
33696;SDS011;20031;43.416;23.232;2022-12-29T16:17:34;96.80;;;51.92;;
33696;SDS011;20031;43.416;23.232;2022-12-29T16:20:31;102.03;;;47.40;;
33696;SDS011;20031;43.416;23.232;2022-12-29T16:23:05;102.47;;;48.42;;
33696;SDS011;20031;43.416;23.232;2022-12-29T16:25:43;123.45;;;51.60;;
33696;SDS011;20031;43.416;23.232;2022-12-29T16:28:20;105.07;;;47.92;;
33696;SDS011;20031;43.416;23.232;2022-12-29T16:30:57;90.32;;;44.17;;
33696;SDS011;20031;43.416;23.232;2022-12-29T16:33:37;63.88;;;29.80;;
33696;SDS011;20031;43.416;23.232;2022-12-29T16:41:42;59.10;;;28.73;;
33696;SDS011;20031;43.416;23.232;2022-12-29T16:44:21;38.88;;;18.10;;
33696;SDS011;20031;43.416;23.232;2022-12-29T16:49:36;29.67;;;14.15;;
33696;SDS011;20031;43.416;23.232;2022-12-29T16:52:22;31.15;;;15.90;;
33696;SDS011;20031;43.416;23.232;2022-12-29T16:54:53;33.40;;;15.90;;
33696;SDS011;20031;43.416;23.232;2022-12-29T16:57:24;30.55;;;15.95;;